Rechercher aéroport 
image banner adimage banner adimage banner ad
image banner ad

7PS0 - B S Corporation Steelton Plant

Situé à Steelton, United States

ICAO - 7PS0, IATA -

Données fournies par Airmate  

Information générale

Coordonnées: N40°13'50" W76°50'12"
Élévation : 300 feet MSL.
Variation magnétique : -10° East
Voir autres Aéroports à Pennsylvania

Données opérationnelles

Special qualification required
Heure actuelle UTC:
Heure actuelle locale:
Météo à : KCXY - Capital City ( 2 km )
METAR: KCXY 150656Z AUTO 26006KT 9SM SCT080 17/16 A2980 RMK AO2 SLP089 T01720156
Voir NOTAMs / SUP AIP / TFR affectant cet aéroport [VIEW]
Fréquences de communication: [VIEW]

Pistes:

Coordonnées de l'aéroport

Adresse: Steelton United States

Vue satellite de 7PS0